SQK weather

Sidi Barrani Airport
Sidi Barrani, Matruh Governorate, Egypt

Public forecast

Using degrees Celsius for public forecast. Weather courtesy of forecast.io.

METAR (pilot weather report)

Closest report is Mersa Matruh Airport, 69.4 nm (128.5 km) E. Retrieved 2019/05/21 08:00 UTC (14 minutes ago):

HEMM 210800Z 13013KT CAVOK 36/07 Q1015 NOSIG

TAF (pilot weather forecast)

Closest forecast is Mersa Matruh Airport, 69.4 nm (128.5 km) E. Retrieved 2019/05/21 06:39 UTC (2 hours ago):

TAF HEMM 210500Z 2106/2212 12013KT CAVOK